sensor_id;sensor_type;location;lat;lon;timestamp;P1;durP1;ratioP1;P2;durP2;ratioP2
51901;SDS011;37929;53.218;6.548;2023-04-15T00:01:26;8.52;;;3.67;;
51901;SDS011;37929;53.218;6.548;2023-04-15T00:03:53;11.30;;;5.65;;
51901;SDS011;37929;53.218;6.548;2023-04-15T00:06:19;11.55;;;4.70;;
51901;SDS011;37929;53.218;6.548;2023-04-15T00:08:46;9.13;;;4.35;;
51901;SDS011;37929;53.218;6.548;2023-04-15T00:11:13;6.07;;;3.92;;
51901;SDS011;37929;53.218;6.548;2023-04-15T00:13:39;6.15;;;3.88;;
51901;SDS011;37929;53.218;6.548;2023-04-15T00:16:05;5.75;;;3.63;;
51901;SDS011;37929;53.218;6.548;2023-04-15T00:18:32;6.47;;;4.18;;
51901;SDS011;37929;53.218;6.548;2023-04-15T00:20:58;7.18;;;3.85;;
51901;SDS011;37929;53.218;6.548;2023-04-15T00:23:24;8.20;;;4.63;;
51901;SDS011;37929;53.218;6.548;2023-04-15T00:25:50;7.53;;;4.45;;
51901;SDS011;37929;53.218;6.548;2023-04-15T00:28:16;7.55;;;5.45;;
51901;SDS011;37929;53.218;6.548;2023-04-15T00:30:42;7.75;;;4.78;;
51901;SDS011;37929;53.218;6.548;2023-04-15T00:33:08;7.53;;;4.53;;
51901;SDS011;37929;53.218;6.548;2023-04-15T00:35:34;9.18;;;4.32;;
51901;SDS011;37929;53.218;6.548;2023-04-15T00:38:02;8.65;;;4.38;;
51901;SDS011;37929;53.218;6.548;2023-04-15T00:40:29;8.80;;;5.05;;
51901;SDS011;37929;53.218;6.548;2023-04-15T00:42:55;10.95;;;5.20;;
51901;SDS011;37929;53.218;6.548;2023-04-15T00:45:21;7.55;;;4.90;;
51901;SDS011;37929;53.218;6.548;2023-04-15T00:47:47;7.78;;;4.47;;
51901;SDS011;37929;53.218;6.548;2023-04-15T00:50:13;7.38;;;4.25;;
51901;SDS011;37929;53.218;6.548;2023-04-15T00:52:39;6.25;;;4.38;;
51901;SDS011;37929;53.218;6.548;2023-04-15T00:55:06;6.05;;;4.18;;
51901;SDS011;37929;53.218;6.548;2023-04-15T00:57:32;9.77;;;4.75;;
51901;SDS011;37929;53.218;6.548;2023-04-15T00:59:59;8.35;;;4.53;;
51901;SDS011;37929;53.218;6.548;2023-04-15T01:02:25;8.48;;;4.68;;
51901;SDS011;37929;53.218;6.548;2023-04-15T01:04:51;10.48;;;5.57;;
51901;SDS011;37929;53.218;6.548;2023-04-15T01:07:17;8.52;;;5.65;;
51901;SDS011;37929;53.218;6.548;2023-04-15T01:09:42;9.18;;;5.80;;
51901;SDS011;37929;53.218;6.548;2023-04-15T01:12:11;8.63;;;5.35;;
51901;SDS011;37929;53.218;6.548;2023-04-15T01:14:38;9.95;;;5.00;;
51901;SDS011;37929;53.218;6.548;2023-04-15T01:17:04;8.23;;;5.20;;
51901;SDS011;37929;53.218;6.548;2023-04-15T01:19:29;9.13;;;4.85;;
51901;SDS011;37929;53.218;6.548;2023-04-15T01:21:55;8.65;;;5.32;;
51901;SDS011;37929;53.218;6.548;2023-04-15T01:24:21;7.47;;;4.80;;
51901;SDS011;37929;53.218;6.548;2023-04-15T01:26:48;10.48;;;5.45;;
51901;SDS011;37929;53.218;6.548;2023-04-15T01:29:14;11.60;;;5.47;;
51901;SDS011;37929;53.218;6.548;2023-04-15T01:31:43;8.38;;;5.70;;
51901;SDS011;37929;53.218;6.548;2023-04-15T01:34:16;7.25;;;4.38;;
51901;SDS011;37929;53.218;6.548;2023-04-15T01:36:43;7.50;;;5.13;;
51901;SDS011;37929;53.218;6.548;2023-04-15T01:39:08;9.63;;;5.20;;
51901;SDS011;37929;53.218;6.548;2023-04-15T01:41:34;9.05;;;5.38;;
51901;SDS011;37929;53.218;6.548;2023-04-15T01:44:00;7.22;;;4.20;;
51901;SDS011;37929;53.218;6.548;2023-04-15T01:46:26;7.45;;;4.70;;
51901;SDS011;37929;53.218;6.548;2023-04-15T01:48:52;9.05;;;5.53;;
51901;SDS011;37929;53.218;6.548;2023-04-15T01:51:17;7.95;;;4.55;;
51901;SDS011;37929;53.218;6.548;2023-04-15T01:53:43;9.75;;;5.18;;
51901;SDS011;37929;53.218;6.548;2023-04-15T01:56:10;8.68;;;5.35;;
51901;SDS011;37929;53.218;6.548;2023-04-15T01:58:36;8.82;;;5.20;;
51901;SDS011;37929;53.218;6.548;2023-04-15T02:01:02;9.27;;;4.90;;
51901;SDS011;37929;53.218;6.548;2023-04-15T02:03:28;7.82;;;4.78;;
51901;SDS011;37929;53.218;6.548;2023-04-15T02:05:54;9.75;;;5.65;;
51901;SDS011;37929;53.218;6.548;2023-04-15T02:08:20;7.88;;;5.35;;
51901;SDS011;37929;53.218;6.548;2023-04-15T02:10:46;8.52;;;5.05;;
51901;SDS011;37929;53.218;6.548;2023-04-15T02:13:12;10.57;;;6.18;;
51901;SDS011;37929;53.218;6.548;2023-04-15T02:15:38;7.20;;;4.72;;
51901;SDS011;37929;53.218;6.548;2023-04-15T02:18:03;9.65;;;5.85;;
51901;SDS011;37929;53.218;6.548;2023-04-15T02:20:29;8.73;;;5.15;;
51901;SDS011;37929;53.218;6.548;2023-04-15T02:22:56;8.38;;;5.40;;
51901;SDS011;37929;53.218;6.548;2023-04-15T02:25:22;12.23;;;6.03;;
51901;SDS011;37929;53.218;6.548;2023-04-15T02:27:47;9.57;;;5.63;;
51901;SDS011;37929;53.218;6.548;2023-04-15T02:30:13;10.45;;;5.47;;
51901;SDS011;37929;53.218;6.548;2023-04-15T02:32:39;9.98;;;6.38;;
51901;SDS011;37929;53.218;6.548;2023-04-15T02:35:09;10.65;;;5.57;;
51901;SDS011;37929;53.218;6.548;2023-04-15T02:37:35;9.57;;;5.57;;
51901;SDS011;37929;53.218;6.548;2023-04-15T02:40:06;11.90;;;6.38;;
51901;SDS011;37929;53.218;6.548;2023-04-15T02:42:34;10.10;;;6.32;;
51901;SDS011;37929;53.218;6.548;2023-04-15T02:45:00;9.00;;;5.80;;
51901;SDS011;37929;53.218;6.548;2023-04-15T02:47:25;8.27;;;5.47;;
51901;SDS011;37929;53.218;6.548;2023-04-15T02:49:51;10.13;;;6.38;;
51901;SDS011;37929;53.218;6.548;2023-04-15T02:52:17;10.68;;;6.18;;
51901;SDS011;37929;53.218;6.548;2023-04-15T02:54:42;10.57;;;6.45;;
51901;SDS011;37929;53.218;6.548;2023-04-15T02:57:08;11.60;;;7.78;;
51901;SDS011;37929;53.218;6.548;2023-04-15T02:59:35;10.88;;;5.82;;
51901;SDS011;37929;53.218;6.548;2023-04-15T03:02:01;9.40;;;6.32;;
51901;SDS011;37929;53.218;6.548;2023-04-15T03:04:27;9.95;;;6.30;;
51901;SDS011;37929;53.218;6.548;2023-04-15T03:06:55;10.75;;;6.55;;
51901;SDS011;37929;53.218;6.548;2023-04-15T03:09:21;9.70;;;6.78;;
51901;SDS011;37929;53.218;6.548;2023-04-15T03:11:47;12.68;;;7.15;;
51901;SDS011;37929;53.218;6.548;2023-04-15T03:14:13;12.90;;;7.75;;
51901;SDS011;37929;53.218;6.548;2023-04-15T03:16:39;11.90;;;6.65;;
51901;SDS011;37929;53.218;6.548;2023-04-15T03:19:04;11.38;;;6.22;;
51901;SDS011;37929;53.218;6.548;2023-04-15T03:21:30;10.60;;;6.78;;
51901;SDS011;37929;53.218;6.548;2023-04-15T03:23:56;9.48;;;6.82;;
51901;SDS011;37929;53.218;6.548;2023-04-15T03:26:25;11.50;;;7.28;;
51901;SDS011;37929;53.218;6.548;2023-04-15T03:28:54;10.38;;;6.80;;
51901;SDS011;37929;53.218;6.548;2023-04-15T03:31:20;10.70;;;6.95;;
51901;SDS011;37929;53.218;6.548;2023-04-15T03:33:46;10.52;;;6.85;;
51901;SDS011;37929;53.218;6.548;2023-04-15T03:36:21;10.30;;;6.45;;
51901;SDS011;37929;53.218;6.548;2023-04-15T03:38:47;13.40;;;7.50;;
51901;SDS011;37929;53.218;6.548;2023-04-15T03:41:14;10.85;;;6.60;;
51901;SDS011;37929;53.218;6.548;2023-04-15T03:43:39;10.93;;;7.15;;
51901;SDS011;37929;53.218;6.548;2023-04-15T03:46:05;14.75;;;7.93;;
51901;SDS011;37929;53.218;6.548;2023-04-15T03:48:31;14.30;;;7.93;;
51901;SDS011;37929;53.218;6.548;2023-04-15T03:50:57;11.30;;;7.50;;
51901;SDS011;37929;53.218;6.548;2023-04-15T03:53:22;12.13;;;7.15;;
51901;SDS011;37929;53.218;6.548;2023-04-15T03:55:48;11.88;;;7.72;;
51901;SDS011;37929;53.218;6.548;2023-04-15T03:58:14;11.30;;;7.20;;
51901;SDS011;37929;53.218;6.548;2023-04-15T04:00:40;13.00;;;8.63;;
51901;SDS011;37929;53.218;6.548;2023-04-15T04:03:06;14.18;;;8.10;;
51901;SDS011;37929;53.218;6.548;2023-04-15T04:05:32;12.38;;;7.65;;
51901;SDS011;37929;53.218;6.548;2023-04-15T04:08:01;10.95;;;7.35;;
51901;SDS011;37929;53.218;6.548;2023-04-15T04:10:26;13.73;;;8.10;;
51901;SDS011;37929;53.218;6.548;2023-04-15T04:12:52;15.32;;;8.25;;
51901;SDS011;37929;53.218;6.548;2023-04-15T04:15:18;13.73;;;7.83;;
51901;SDS011;37929;53.218;6.548;2023-04-15T04:17:44;12.88;;;8.13;;
51901;SDS011;37929;53.218;6.548;2023-04-15T04:20:09;11.55;;;6.97;;
51901;SDS011;37929;53.218;6.548;2023-04-15T04:22:39;15.40;;;8.43;;
51901;SDS011;37929;53.218;6.548;2023-04-15T04:25:05;13.48;;;8.70;;
51901;SDS011;37929;53.218;6.548;2023-04-15T04:27:33;14.07;;;8.05;;
51901;SDS011;37929;53.218;6.548;2023-04-15T04:29:58;12.30;;;7.65;;
51901;SDS011;37929;53.218;6.548;2023-04-15T04:32:24;11.80;;;7.88;;
51901;SDS011;37929;53.218;6.548;2023-04-15T04:34:50;11.45;;;7.72;;
51901;SDS011;37929;53.218;6.548;2023-04-15T04:37:16;11.88;;;7.60;;
51901;SDS011;37929;53.218;6.548;2023-04-15T04:39:42;14.02;;;7.93;;
51901;SDS011;37929;53.218;6.548;2023-04-15T04:42:07;12.85;;;8.07;;
51901;SDS011;37929;53.218;6.548;2023-04-15T04:44:33;12.85;;;8.13;;
51901;SDS011;37929;53.218;6.548;2023-04-15T04:46:59;10.32;;;7.07;;
51901;SDS011;37929;53.218;6.548;2023-04-15T04:49:24;17.25;;;7.57;;
51901;SDS011;37929;53.218;6.548;2023-04-15T04:51:50;13.07;;;7.47;;
51901;SDS011;37929;53.218;6.548;2023-04-15T04:54:16;10.45;;;7.22;;
51901;SDS011;37929;53.218;6.548;2023-04-15T04:56:42;10.63;;;6.90;;
51901;SDS011;37929;53.218;6.548;2023-04-15T04:59:08;11.15;;;7.20;;
51901;SDS011;37929;53.218;6.548;2023-04-15T05:01:33;11.50;;;6.80;;
51901;SDS011;37929;53.218;6.548;2023-04-15T05:03:59;11.60;;;7.55;;
51901;SDS011;37929;53.218;6.548;2023-04-15T05:06:25;11.90;;;7.13;;
51901;SDS011;37929;53.218;6.548;2023-04-15T05:08:51;12.23;;;7.78;;
51901;SDS011;37929;53.218;6.548;2023-04-15T05:11:17;12.00;;;7.13;;
51901;SDS011;37929;53.218;6.548;2023-04-15T05:13:43;13.10;;;7.40;;
51901;SDS011;37929;53.218;6.548;2023-04-15T05:16:08;12.40;;;7.80;;
51901;SDS011;37929;53.218;6.548;2023-04-15T05:18:34;13.25;;;7.75;;
51901;SDS011;37929;53.218;6.548;2023-04-15T05:21:01;11.80;;;7.78;;
51901;SDS011;37929;53.218;6.548;2023-04-15T05:23:27;13.77;;;7.63;;
51901;SDS011;37929;53.218;6.548;2023-04-15T05:25:52;12.30;;;7.53;;
51901;SDS011;37929;53.218;6.548;2023-04-15T05:28:18;10.93;;;6.88;;
51901;SDS011;37929;53.218;6.548;2023-04-15T05:30:44;12.90;;;7.80;;
51901;SDS011;37929;53.218;6.548;2023-04-15T05:33:13;12.98;;;7.82;;
51901;SDS011;37929;53.218;6.548;2023-04-15T05:35:39;14.10;;;8.55;;
51901;SDS011;37929;53.218;6.548;2023-04-15T05:38:04;13.20;;;8.05;;
51901;SDS011;37929;53.218;6.548;2023-04-15T05:40:30;12.80;;;7.22;;
51901;SDS011;37929;53.218;6.548;2023-04-15T05:42:56;10.35;;;6.78;;
51901;SDS011;37929;53.218;6.548;2023-04-15T05:45:22;12.15;;;6.93;;
51901;SDS011;37929;53.218;6.548;2023-04-15T05:47:47;11.52;;;7.07;;
51901;SDS011;37929;53.218;6.548;2023-04-15T05:50:18;12.65;;;7.47;;
51901;SDS011;37929;53.218;6.548;2023-04-15T05:52:44;12.25;;;7.22;;
51901;SDS011;37929;53.218;6.548;2023-04-15T05:55:10;12.27;;;7.40;;
51901;SDS011;37929;53.218;6.548;2023-04-15T05:57:36;14.82;;;7.15;;
51901;SDS011;37929;53.218;6.548;2023-04-15T06:00:03;15.43;;;7.60;;
51901;SDS011;37929;53.218;6.548;2023-04-15T06:02:29;10.85;;;7.22;;
51901;SDS011;37929;53.218;6.548;2023-04-15T06:04:56;14.60;;;7.40;;
51901;SDS011;37929;53.218;6.548;2023-04-15T06:07:22;12.30;;;7.25;;
51901;SDS011;37929;53.218;6.548;2023-04-15T06:09:48;12.55;;;7.35;;
51901;SDS011;37929;53.218;6.548;2023-04-15T06:12:14;12.68;;;7.40;;
51901;SDS011;37929;53.218;6.548;2023-04-15T06:14:41;14.00;;;7.65;;
51901;SDS011;37929;53.218;6.548;2023-04-15T06:17:07;12.40;;;7.18;;
51901;SDS011;37929;53.218;6.548;2023-04-15T06:19:33;11.85;;;8.45;;
51901;SDS011;37929;53.218;6.548;2023-04-15T06:22:00;11.85;;;6.70;;
51901;SDS011;37929;53.218;6.548;2023-04-15T06:24:26;11.07;;;6.85;;
51901;SDS011;37929;53.218;6.548;2023-04-15T06:26:52;13.77;;;7.88;;
51901;SDS011;37929;53.218;6.548;2023-04-15T06:29:18;15.27;;;7.32;;
51901;SDS011;37929;53.218;6.548;2023-04-15T06:31:46;10.88;;;6.75;;
51901;SDS011;37929;53.218;6.548;2023-04-15T06:34:13;11.65;;;6.45;;
51901;SDS011;37929;53.218;6.548;2023-04-15T06:36:39;11.15;;;7.30;;
51901;SDS011;37929;53.218;6.548;2023-04-15T06:39:04;12.70;;;7.43;;
51901;SDS011;37929;53.218;6.548;2023-04-15T06:41:30;12.88;;;6.65;;
51901;SDS011;37929;53.218;6.548;2023-04-15T06:43:59;13.02;;;7.28;;
51901;SDS011;37929;53.218;6.548;2023-04-15T06:46:25;12.73;;;7.07;;
51901;SDS011;37929;53.218;6.548;2023-04-15T06:48:50;12.50;;;7.85;;
51901;SDS011;37929;53.218;6.548;2023-04-15T06:51:16;13.15;;;7.63;;
51901;SDS011;37929;53.218;6.548;2023-04-15T06:53:42;12.25;;;7.05;;
51901;SDS011;37929;53.218;6.548;2023-04-15T06:56:08;10.40;;;6.55;;
51901;SDS011;37929;53.218;6.548;2023-04-15T06:58:34;10.52;;;6.07;;
51901;SDS011;37929;53.218;6.548;2023-04-15T07:01:00;11.20;;;7.22;;
51901;SDS011;37929;53.218;6.548;2023-04-15T07:03:26;13.77;;;7.05;;
51901;SDS011;37929;53.218;6.548;2023-04-15T07:05:52;11.57;;;6.75;;
51901;SDS011;37929;53.218;6.548;2023-04-15T07:08:20;10.90;;;6.70;;
51901;SDS011;37929;53.218;6.548;2023-04-15T07:10:46;12.05;;;6.85;;
51901;SDS011;37929;53.218;6.548;2023-04-15T07:13:12;11.38;;;6.40;;
51901;SDS011;37929;53.218;6.548;2023-04-15T07:15:38;10.77;;;6.07;;
51901;SDS011;37929;53.218;6.548;2023-04-15T07:18:04;11.68;;;6.03;;
51901;SDS011;37929;53.218;6.548;2023-04-15T07:20:29;10.40;;;6.13;;
51901;SDS011;37929;53.218;6.548;2023-04-15T07:22:55;10.77;;;6.22;;
51901;SDS011;37929;53.218;6.548;2023-04-15T07:25:21;12.32;;;6.00;;
51901;SDS011;37929;53.218;6.548;2023-04-15T07:27:47;8.63;;;5.75;;
51901;SDS011;37929;53.218;6.548;2023-04-15T07:30:13;10.45;;;5.82;;
51901;SDS011;37929;53.218;6.548;2023-04-15T07:32:39;9.15;;;5.65;;
51901;SDS011;37929;53.218;6.548;2023-04-15T07:35:05;9.65;;;5.40;;
51901;SDS011;37929;53.218;6.548;2023-04-15T07:37:32;9.32;;;5.30;;
51901;SDS011;37929;53.218;6.548;2023-04-15T07:39:58;11.90;;;5.85;;
51901;SDS011;37929;53.218;6.548;2023-04-15T07:42:23;9.32;;;5.30;;
51901;SDS011;37929;53.218;6.548;2023-04-15T07:44:50;7.72;;;4.97;;
51901;SDS011;37929;53.218;6.548;2023-04-15T07:47:16;8.65;;;5.03;;
51901;SDS011;37929;53.218;6.548;2023-04-15T07:49:41;7.68;;;4.97;;
51901;SDS011;37929;53.218;6.548;2023-04-15T07:52:08;6.50;;;4.70;;
51901;SDS011;37929;53.218;6.548;2023-04-15T07:54:34;8.43;;;4.90;;
51901;SDS011;37929;53.218;6.548;2023-04-15T07:57:00;9.35;;;5.38;;
51901;SDS011;37929;53.218;6.548;2023-04-15T07:59:25;12.45;;;5.93;;
51901;SDS011;37929;53.218;6.548;2023-04-15T08:01:54;9.45;;;4.95;;
51901;SDS011;37929;53.218;6.548;2023-04-15T08:04:19;10.00;;;4.60;;
51901;SDS011;37929;53.218;6.548;2023-04-15T08:06:45;7.32;;;4.88;;
51901;SDS011;37929;53.218;6.548;2023-04-15T08:09:12;9.07;;;4.80;;
51901;SDS011;37929;53.218;6.548;2023-04-15T08:11:38;6.38;;;4.45;;
51901;SDS011;37929;53.218;6.548;2023-04-15T08:14:04;8.75;;;4.30;;
51901;SDS011;37929;53.218;6.548;2023-04-15T08:16:31;6.72;;;4.28;;
51901;SDS011;37929;53.218;6.548;2023-04-15T08:18:57;6.93;;;3.80;;
51901;SDS011;37929;53.218;6.548;2023-04-15T08:21:23;5.93;;;4.15;;
51901;SDS011;37929;53.218;6.548;2023-04-15T08:23:49;9.32;;;4.57;;
51901;SDS011;37929;53.218;6.548;2023-04-15T08:26:16;7.45;;;4.07;;
51901;SDS011;37929;53.218;6.548;2023-04-15T08:28:43;6.50;;;3.50;;
51901;SDS011;37929;53.218;6.548;2023-04-15T08:31:11;6.25;;;3.45;;
51901;SDS011;37929;53.218;6.548;2023-04-15T08:33:39;6.13;;;3.53;;
51901;SDS011;37929;53.218;6.548;2023-04-15T08:36:04;6.72;;;3.88;;
51901;SDS011;37929;53.218;6.548;2023-04-15T08:38:31;5.22;;;3.40;;
51901;SDS011;37929;53.218;6.548;2023-04-15T08:40:58;5.88;;;3.30;;
51901;SDS011;37929;53.218;6.548;2023-04-15T08:43:27;6.93;;;2.90;;
51901;SDS011;37929;53.218;6.548;2023-04-15T08:45:57;4.10;;;2.90;;
51901;SDS011;37929;53.218;6.548;2023-04-15T08:48:27;4.22;;;2.70;;
51901;SDS011;37929;53.218;6.548;2023-04-15T08:50:54;5.22;;;2.90;;
51901;SDS011;37929;53.218;6.548;2023-04-15T08:53:20;5.00;;;2.50;;
51901;SDS011;37929;53.218;6.548;2023-04-15T08:55:50;4.50;;;2.53;;
51901;SDS011;37929;53.218;6.548;2023-04-15T08:58:17;4.13;;;2.30;;
51901;SDS011;37929;53.218;6.548;2023-04-15T09:00:44;5.65;;;2.10;;
51901;SDS011;37929;53.218;6.548;2023-04-15T09:03:10;7.70;;;2.25;;
51901;SDS011;37929;53.218;6.548;2023-04-15T09:05:36;3.80;;;2.28;;
51901;SDS011;37929;53.218;6.548;2023-04-15T09:08:02;4.32;;;2.45;;
51901;SDS011;37929;53.218;6.548;2023-04-15T09:10:30;4.40;;;2.58;;
51901;SDS011;37929;53.218;6.548;2023-04-15T09:12:57;5.32;;;3.38;;
51901;SDS011;37929;53.218;6.548;2023-04-15T09:15:24;4.93;;;3.00;;
51901;SDS011;37929;53.218;6.548;2023-04-15T09:17:54;7.22;;;2.42;;
51901;SDS011;37929;53.218;6.548;2023-04-15T09:20:25;5.18;;;2.47;;
51901;SDS011;37929;53.218;6.548;2023-04-15T09:22:51;4.00;;;2.10;;
51901;SDS011;37929;53.218;6.548;2023-04-15T09:27:51;3.10;;;2.17;;
51901;SDS011;37929;53.218;6.548;2023-04-15T09:30:18;4.03;;;2.17;;
51901;SDS011;37929;53.218;6.548;2023-04-15T09:35:20;4.72;;;2.00;;
51901;SDS011;37929;53.218;6.548;2023-04-15T09:37:47;7.80;;;2.20;;
51901;SDS011;37929;53.218;6.548;2023-04-15T09:40:16;3.70;;;1.90;;
51901;SDS011;37929;53.218;6.548;2023-04-15T09:42:56;4.57;;;1.85;;
51901;SDS011;37929;53.218;6.548;2023-04-15T09:45:26;3.13;;;1.95;;
51901;SDS011;37929;53.218;6.548;2023-04-15T09:47:52;3.72;;;2.00;;
51901;SDS011;37929;53.218;6.548;2023-04-15T09:50:18;4.75;;;1.90;;
51901;SDS011;37929;53.218;6.548;2023-04-15T09:52:45;3.28;;;2.17;;
51901;SDS011;37929;53.218;6.548;2023-04-15T09:55:12;3.25;;;1.55;;
51901;SDS011;37929;53.218;6.548;2023-04-15T09:57:41;5.03;;;1.85;;
51901;SDS011;37929;53.218;6.548;2023-04-15T10:00:08;3.70;;;1.60;;
51901;SDS011;37929;53.218;6.548;2023-04-15T10:02:38;3.15;;;1.80;;
51901;SDS011;37929;53.218;6.548;2023-04-15T10:05:12;2.47;;;1.52;;
51901;SDS011;37929;53.218;6.548;2023-04-15T10:07:42;2.78;;;1.40;;
51901;SDS011;37929;53.218;6.548;2023-04-15T10:10:08;2.50;;;1.38;;
51901;SDS011;37929;53.218;6.548;2023-04-15T10:12:38;4.40;;;1.50;;
51901;SDS011;37929;53.218;6.548;2023-04-15T10:15:06;3.20;;;1.70;;
51901;SDS011;37929;53.218;6.548;2023-04-15T10:17:39;3.65;;;1.75;;
51901;SDS011;37929;53.218;6.548;2023-04-15T10:20:08;5.00;;;1.70;;
51901;SDS011;37929;53.218;6.548;2023-04-15T10:22:37;6.15;;;2.05;;
51901;SDS011;37929;53.218;6.548;2023-04-15T10:25:03;4.18;;;1.83;;
51901;SDS011;37929;53.218;6.548;2023-04-15T10:27:31;4.18;;;2.00;;
51901;SDS011;37929;53.218;6.548;2023-04-15T10:29:59;4.97;;;2.00;;
51901;SDS011;37929;53.218;6.548;2023-04-15T10:32:26;4.88;;;1.77;;
51901;SDS011;37929;53.218;6.548;2023-04-15T10:34:52;3.60;;;1.80;;
51901;SDS011;37929;53.218;6.548;2023-04-15T10:37:19;5.00;;;1.85;;
51901;SDS011;37929;53.218;6.548;2023-04-15T10:39:46;3.90;;;2.03;;
51901;SDS011;37929;53.218;6.548;2023-04-15T10:42:16;3.72;;;2.10;;
51901;SDS011;37929;53.218;6.548;2023-04-15T10:44:44;3.70;;;1.90;;
51901;SDS011;37929;53.218;6.548;2023-04-15T10:47:16;5.45;;;1.90;;
51901;SDS011;37929;53.218;6.548;2023-04-15T10:49:44;4.57;;;1.83;;
51901;SDS011;37929;53.218;6.548;2023-04-15T10:52:24;6.75;;;2.40;;
51901;SDS011;37929;53.218;6.548;2023-04-15T10:57:43;7.13;;;2.42;;
51901;SDS011;37929;53.218;6.548;2023-04-15T11:00:10;5.13;;;2.30;;
51901;SDS011;37929;53.218;6.548;2023-04-15T11:02:37;4.22;;;2.22;;
51901;SDS011;37929;53.218;6.548;2023-04-15T11:05:08;6.40;;;2.00;;
51901;SDS011;37929;53.218;6.548;2023-04-15T11:07:39;5.07;;;2.13;;
51901;SDS011;37929;53.218;6.548;2023-04-15T11:12:46;3.60;;;2.30;;
51901;SDS011;37929;53.218;6.548;2023-04-15T11:15:26;4.53;;;2.00;;
51901;SDS011;37929;53.218;6.548;2023-04-15T11:17:59;4.15;;;2.17;;
51901;SDS011;37929;53.218;6.548;2023-04-15T11:20:38;3.63;;;1.90;;
51901;SDS011;37929;53.218;6.548;2023-04-15T11:23:05;3.00;;;1.70;;
51901;SDS011;37929;53.218;6.548;2023-04-15T11:25:31;5.35;;;1.70;;
51901;SDS011;37929;53.218;6.548;2023-04-15T11:28:00;4.78;;;1.70;;
51901;SDS011;37929;53.218;6.548;2023-04-15T11:30:27;4.57;;;1.80;;
51901;SDS011;37929;53.218;6.548;2023-04-15T11:33:04;4.13;;;1.80;;
51901;SDS011;37929;53.218;6.548;2023-04-15T11:35:56;5.32;;;2.00;;
51901;SDS011;37929;53.218;6.548;2023-04-15T11:38:22;9.13;;;2.42;;
51901;SDS011;37929;53.218;6.548;2023-04-15T11:40:49;4.18;;;1.70;;
51901;SDS011;37929;53.218;6.548;2023-04-15T11:43:17;3.60;;;1.65;;
51901;SDS011;37929;53.218;6.548;2023-04-15T11:45:48;3.25;;;1.77;;
51901;SDS011;37929;53.218;6.548;2023-04-15T11:48:24;4.65;;;1.63;;
51901;SDS011;37929;53.218;6.548;2023-04-15T11:53:24;5.60;;;1.42;;
51901;SDS011;37929;53.218;6.548;2023-04-15T11:56:01;5.30;;;1.80;;
51901;SDS011;37929;53.218;6.548;2023-04-15T11:58:27;3.55;;;1.50;;
51901;SDS011;37929;53.218;6.548;2023-04-15T12:00:55;6.50;;;2.10;;
51901;SDS011;37929;53.218;6.548;2023-04-15T12:03:36;5.50;;;1.45;;
51901;SDS011;37929;53.218;6.548;2023-04-15T12:13:53;2.45;;;1.35;;
51901;SDS011;37929;53.218;6.548;2023-04-15T12:16:21;4.65;;;2.35;;
51901;SDS011;37929;53.218;6.548;2023-04-15T12:18:55;3.53;;;1.67;;
51901;SDS011;37929;53.218;6.548;2023-04-15T12:21:23;3.28;;;1.63;;
51901;SDS011;37929;53.218;6.548;2023-04-15T12:23:56;13.25;;;2.75;;
51901;SDS011;37929;53.218;6.548;2023-04-15T12:26:44;3.13;;;1.67;;
51901;SDS011;37929;53.218;6.548;2023-04-15T12:29:13;8.25;;;2.20;;
51901;SDS011;37929;53.218;6.548;2023-04-15T12:31:47;5.63;;;1.90;;
51901;SDS011;37929;53.218;6.548;2023-04-15T12:34:56;6.25;;;1.80;;
51901;SDS011;37929;53.218;6.548;2023-04-15T12:37:15;5.43;;;1.70;;
51901;SDS011;37929;53.218;6.548;2023-04-15T12:39:42;7.50;;;1.80;;
51901;SDS011;37929;53.218;6.548;2023-04-15T12:42:10;5.80;;;1.67;;
51901;SDS011;37929;53.218;6.548;2023-04-15T12:44:37;6.25;;;2.08;;
51901;SDS011;37929;53.218;6.548;2023-04-15T12:47:03;4.35;;;1.67;;
51901;SDS011;37929;53.218;6.548;2023-04-15T12:49:29;4.32;;;1.20;;
51901;SDS011;37929;53.218;6.548;2023-04-15T12:51:57;3.60;;;2.05;;
51901;SDS011;37929;53.218;6.548;2023-04-15T12:54:27;4.10;;;1.40;;
51901;SDS011;37929;53.218;6.548;2023-04-15T12:56:54;5.00;;;1.60;;
51901;SDS011;37929;53.218;6.548;2023-04-15T12:59:20;9.02;;;1.80;;
51901;SDS011;37929;53.218;6.548;2023-04-15T13:01:47;5.70;;;2.35;;
51901;SDS011;37929;53.218;6.548;2023-04-15T13:04:14;4.47;;;2.08;;
51901;SDS011;37929;53.218;6.548;2023-04-15T13:06:41;5.95;;;1.70;;
51901;SDS011;37929;53.218;6.548;2023-04-15T13:09:07;6.25;;;1.90;;
51901;SDS011;37929;53.218;6.548;2023-04-15T13:11:33;3.80;;;1.60;;
51901;SDS011;37929;53.218;6.548;2023-04-15T13:14:00;6.03;;;1.73;;
51901;SDS011;37929;53.218;6.548;2023-04-15T13:16:30;4.05;;;1.60;;
51901;SDS011;37929;53.218;6.548;2023-04-15T13:19:01;4.85;;;1.70;;
51901;SDS011;37929;53.218;6.548;2023-04-15T13:21:28;6.47;;;1.83;;
51901;SDS011;37929;53.218;6.548;2023-04-15T13:23:55;6.18;;;1.75;;
51901;SDS011;37929;53.218;6.548;2023-04-15T13:26:20;3.33;;;1.40;;
51901;SDS011;37929;53.218;6.548;2023-04-15T13:28:46;7.72;;;1.45;;
51901;SDS011;37929;53.218;6.548;2023-04-15T13:31:12;7.38;;;2.00;;
51901;SDS011;37929;53.218;6.548;2023-04-15T13:33:38;4.65;;;1.98;;
51901;SDS011;37929;53.218;6.548;2023-04-15T13:36:04;4.25;;;1.60;;
51901;SDS011;37929;53.218;6.548;2023-04-15T13:38:30;7.45;;;1.90;;
51901;SDS011;37929;53.218;6.548;2023-04-15T13:40:56;7.45;;;1.77;;
51901;SDS011;37929;53.218;6.548;2023-04-15T13:43:22;4.30;;;1.65;;
51901;SDS011;37929;53.218;6.548;2023-04-15T13:45:48;6.47;;;1.60;;
51901;SDS011;37929;53.218;6.548;2023-04-15T13:48:14;6.00;;;1.90;;
51901;SDS011;37929;53.218;6.548;2023-04-15T13:50:39;6.13;;;1.67;;
51901;SDS011;37929;53.218;6.548;2023-04-15T13:53:09;5.10;;;1.52;;
51901;SDS011;37929;53.218;6.548;2023-04-15T13:55:37;3.88;;;1.58;;
51901;SDS011;37929;53.218;6.548;2023-04-15T13:58:06;4.65;;;1.65;;
51901;SDS011;37929;53.218;6.548;2023-04-15T14:00:32;8.05;;;1.77;;
51901;SDS011;37929;53.218;6.548;2023-04-15T14:02:58;4.22;;;1.90;;
51901;SDS011;37929;53.218;6.548;2023-04-15T14:05:24;3.25;;;1.65;;
51901;SDS011;37929;53.218;6.548;2023-04-15T14:07:49;6.65;;;2.08;;
51901;SDS011;37929;53.218;6.548;2023-04-15T14:10:15;5.13;;;2.42;;
51901;SDS011;37929;53.218;6.548;2023-04-15T14:12:41;4.72;;;1.60;;
51901;SDS011;37929;53.218;6.548;2023-04-15T14:15:07;4.75;;;1.63;;
51901;SDS011;37929;53.218;6.548;2023-04-15T14:17:33;5.22;;;1.90;;
51901;SDS011;37929;53.218;6.548;2023-04-15T14:19:58;5.85;;;1.70;;
51901;SDS011;37929;53.218;6.548;2023-04-15T14:22:24;7.22;;;1.85;;
51901;SDS011;37929;53.218;6.548;2023-04-15T14:24:50;3.83;;;1.95;;
51901;SDS011;37929;53.218;6.548;2023-04-15T14:27:17;3.13;;;1.58;;
51901;SDS011;37929;53.218;6.548;2023-04-15T14:29:43;6.22;;;1.90;;
51901;SDS011;37929;53.218;6.548;2023-04-15T14:32:09;4.85;;;1.65;;
51901;SDS011;37929;53.218;6.548;2023-04-15T14:34:35;5.88;;;1.95;;
51901;SDS011;37929;53.218;6.548;2023-04-15T14:37:01;6.13;;;1.85;;
51901;SDS011;37929;53.218;6.548;2023-04-15T14:39:27;5.60;;;1.80;;
51901;SDS011;37929;53.218;6.548;2023-04-15T14:41:53;6.30;;;2.58;;
51901;SDS011;37929;53.218;6.548;2023-04-15T14:44:19;5.07;;;2.40;;
51901;SDS011;37929;53.218;6.548;2023-04-15T14:46:45;5.18;;;2.45;;
51901;SDS011;37929;53.218;6.548;2023-04-15T14:49:11;2.90;;;2.00;;
51901;SDS011;37929;53.218;6.548;2023-04-15T14:51:36;4.85;;;2.22;;
51901;SDS011;37929;53.218;6.548;2023-04-15T14:54:02;7.97;;;2.20;;
51901;SDS011;37929;53.218;6.548;2023-04-15T14:56:28;3.67;;;2.25;;
51901;SDS011;37929;53.218;6.548;2023-04-15T14:58:53;5.35;;;2.47;;
51901;SDS011;37929;53.218;6.548;2023-04-15T15:01:19;6.68;;;2.55;;
51901;SDS011;37929;53.218;6.548;2023-04-15T15:03:45;4.47;;;2.20;;